sensor_id;sensor_type;location;lat;lon;timestamp;temperature;humidity
13198;DHT22;6664;52.514;13.440;2022-10-16T00:01:37;14.80;89.10
13198;DHT22;6664;52.514;13.440;2022-10-16T00:04:05;14.90;88.80
13198;DHT22;6664;52.514;13.440;2022-10-16T00:06:34;14.90;88.40
13198;DHT22;6664;52.514;13.440;2022-10-16T00:09:01;15.00;88.10
13198;DHT22;6664;52.514;13.440;2022-10-16T00:11:32;15.00;87.50
13198;DHT22;6664;52.514;13.440;2022-10-16T00:14:01;15.10;87.50
13198;DHT22;6664;52.514;13.440;2022-10-16T00:16:31;15.10;87.20
13198;DHT22;6664;52.514;13.440;2022-10-16T00:18:58;15.20;87.00
13198;DHT22;6664;52.514;13.440;2022-10-16T00:21:28;15.20;86.50
13198;DHT22;6664;52.514;13.440;2022-10-16T00:24:01;15.30;86.20
13198;DHT22;6664;52.514;13.440;2022-10-16T00:26:31;15.30;85.90
13198;DHT22;6664;52.514;13.440;2022-10-16T00:28:58;15.40;85.60
13198;DHT22;6664;52.514;13.440;2022-10-16T00:31:26;15.40;85.30
13198;DHT22;6664;52.514;13.440;2022-10-16T00:33:55;15.40;85.30
13198;DHT22;6664;52.514;13.440;2022-10-16T00:36:25;15.40;85.00
13198;DHT22;6664;52.514;13.440;2022-10-16T00:38:54;15.30;84.90
13198;DHT22;6664;52.514;13.440;2022-10-16T00:41:23;15.40;85.00
13198;DHT22;6664;52.514;13.440;2022-10-16T00:43:53;15.30;84.90
13198;DHT22;6664;52.514;13.440;2022-10-16T00:46:26;15.30;84.90
13198;DHT22;6664;52.514;13.440;2022-10-16T00:49:00;15.30;85.00
13198;DHT22;6664;52.514;13.440;2022-10-16T00:51:37;15.30;85.10
13198;DHT22;6664;52.514;13.440;2022-10-16T00:54:10;15.40;85.00
13198;DHT22;6664;52.514;13.440;2022-10-16T00:56:38;15.30;84.90
13198;DHT22;6664;52.514;13.440;2022-10-16T00:59:10;15.30;85.10
13198;DHT22;6664;52.514;13.440;2022-10-16T01:01:42;15.20;85.20
13198;DHT22;6664;52.514;13.440;2022-10-16T01:04:11;15.20;85.70
13198;DHT22;6664;52.514;13.440;2022-10-16T01:07:06;15.20;85.90
13198;DHT22;6664;52.514;13.440;2022-10-16T01:15:25;15.40;85.50
13198;DHT22;6664;52.514;13.440;2022-10-16T01:18:28;15.30;85.30
13198;DHT22;6664;52.514;13.440;2022-10-16T01:21:10;15.30;85.70
13198;DHT22;6664;52.514;13.440;2022-10-16T01:23:57;15.20;85.60
13198;DHT22;6664;52.514;13.440;2022-10-16T01:31:50;15.30;86.00
13198;DHT22;6664;52.514;13.440;2022-10-16T01:34:33;15.30;85.80
13198;DHT22;6664;52.514;13.440;2022-10-16T01:37:09;15.30;85.80
13198;DHT22;6664;52.514;13.440;2022-10-16T01:39:40;15.40;85.50
13198;DHT22;6664;52.514;13.440;2022-10-16T01:42:17;15.50;85.30
13198;DHT22;6664;52.514;13.440;2022-10-16T01:44:46;15.40;84.90
13198;DHT22;6664;52.514;13.440;2022-10-16T01:47:15;15.40;84.90
13198;DHT22;6664;52.514;13.440;2022-10-16T01:49:46;15.40;85.00
13198;DHT22;6664;52.514;13.440;2022-10-16T01:52:17;15.50;84.90
13198;DHT22;6664;52.514;13.440;2022-10-16T01:54:54;15.50;84.70
13198;DHT22;6664;52.514;13.440;2022-10-16T01:57:24;15.50;84.50
13198;DHT22;6664;52.514;13.440;2022-10-16T01:59:54;15.60;84.30
13198;DHT22;6664;52.514;13.440;2022-10-16T02:02:26;15.50;84.10
13198;DHT22;6664;52.514;13.440;2022-10-16T02:04:59;15.60;84.00
13198;DHT22;6664;52.514;13.440;2022-10-16T02:07:30;15.60;83.90
13198;DHT22;6664;52.514;13.440;2022-10-16T02:09:57;15.70;83.60
13198;DHT22;6664;52.514;13.440;2022-10-16T02:12:30;15.70;83.30
13198;DHT22;6664;52.514;13.440;2022-10-16T02:15:02;15.70;83.10
13198;DHT22;6664;52.514;13.440;2022-10-16T02:17:32;15.70;83.10
13198;DHT22;6664;52.514;13.440;2022-10-16T02:19:59;15.70;83.00
13198;DHT22;6664;52.514;13.440;2022-10-16T02:22:27;15.70;83.00
13198;DHT22;6664;52.514;13.440;2022-10-16T02:27:41;15.70;83.00
13198;DHT22;6664;52.514;13.440;2022-10-16T02:30:19;15.80;82.90
13198;DHT22;6664;52.514;13.440;2022-10-16T02:32:48;15.70;82.50
13198;DHT22;6664;52.514;13.440;2022-10-16T02:35:18;15.80;82.40
13198;DHT22;6664;52.514;13.440;2022-10-16T02:37:47;15.80;82.30
13198;DHT22;6664;52.514;13.440;2022-10-16T02:40:18;15.80;82.10
13198;DHT22;6664;52.514;13.440;2022-10-16T02:42:52;15.70;82.10
13198;DHT22;6664;52.514;13.440;2022-10-16T02:45:19;15.80;82.10
13198;DHT22;6664;52.514;13.440;2022-10-16T02:47:47;15.70;82.00
13198;DHT22;6664;52.514;13.440;2022-10-16T02:50:14;15.80;82.00
13198;DHT22;6664;52.514;13.440;2022-10-16T02:52:41;15.80;81.90
13198;DHT22;6664;52.514;13.440;2022-10-16T02:55:11;15.80;81.90
13198;DHT22;6664;52.514;13.440;2022-10-16T02:57:37;15.80;81.90
13198;DHT22;6664;52.514;13.440;2022-10-16T03:00:08;15.70;81.80
13198;DHT22;6664;52.514;13.440;2022-10-16T03:02:35;15.70;81.90
13198;DHT22;6664;52.514;13.440;2022-10-16T03:05:07;15.60;82.00
13198;DHT22;6664;52.514;13.440;2022-10-16T03:07:35;15.60;82.50
13198;DHT22;6664;52.514;13.440;2022-10-16T03:10:02;15.50;82.80
13198;DHT22;6664;52.514;13.440;2022-10-16T03:12:29;15.40;82.90
13198;DHT22;6664;52.514;13.440;2022-10-16T03:14:57;15.40;83.30
13198;DHT22;6664;52.514;13.440;2022-10-16T03:17:24;15.30;83.50
13198;DHT22;6664;52.514;13.440;2022-10-16T03:19:52;15.30;83.60
13198;DHT22;6664;52.514;13.440;2022-10-16T03:22:19;15.30;83.90
13198;DHT22;6664;52.514;13.440;2022-10-16T03:24:46;15.30;84.00
13198;DHT22;6664;52.514;13.440;2022-10-16T03:27:15;15.30;84.30
13198;DHT22;6664;52.514;13.440;2022-10-16T03:29:42;15.20;84.40
13198;DHT22;6664;52.514;13.440;2022-10-16T03:32:09;15.20;84.50
13198;DHT22;6664;52.514;13.440;2022-10-16T03:34:36;15.10;84.80
13198;DHT22;6664;52.514;13.440;2022-10-16T03:37:03;15.10;85.00
13198;DHT22;6664;52.514;13.440;2022-10-16T03:39:30;15.10;85.30
13198;DHT22;6664;52.514;13.440;2022-10-16T03:41:57;15.00;85.60
13198;DHT22;6664;52.514;13.440;2022-10-16T03:44:30;15.00;85.80
13198;DHT22;6664;52.514;13.440;2022-10-16T03:46:59;15.00;86.00
13198;DHT22;6664;52.514;13.440;2022-10-16T03:49:26;14.90;86.20
13198;DHT22;6664;52.514;13.440;2022-10-16T03:51:53;14.90;86.40
13198;DHT22;6664;52.514;13.440;2022-10-16T03:54:19;14.90;86.50
13198;DHT22;6664;52.514;13.440;2022-10-16T03:56:46;14.90;86.70
13198;DHT22;6664;52.514;13.440;2022-10-16T03:59:13;14.90;86.70
13198;DHT22;6664;52.514;13.440;2022-10-16T04:01:43;14.90;86.80
13198;DHT22;6664;52.514;13.440;2022-10-16T04:04:10;14.90;86.90
13198;DHT22;6664;52.514;13.440;2022-10-16T04:06:37;15.00;86.80
13198;DHT22;6664;52.514;13.440;2022-10-16T04:09:04;15.00;86.80
13198;DHT22;6664;52.514;13.440;2022-10-16T04:11:30;15.00;86.70
13198;DHT22;6664;52.514;13.440;2022-10-16T04:13:57;14.90;86.60
13198;DHT22;6664;52.514;13.440;2022-10-16T04:16:27;14.90;86.70
13198;DHT22;6664;52.514;13.440;2022-10-16T04:18:54;14.90;86.90
13198;DHT22;6664;52.514;13.440;2022-10-16T04:21:21;14.90;86.80
13198;DHT22;6664;52.514;13.440;2022-10-16T04:23:49;14.90;86.70
13198;DHT22;6664;52.514;13.440;2022-10-16T04:26:16;14.90;87.60
13198;DHT22;6664;52.514;13.440;2022-10-16T04:28:43;14.90;86.50
13198;DHT22;6664;52.514;13.440;2022-10-16T04:31:10;14.80;87.00
13198;DHT22;6664;52.514;13.440;2022-10-16T04:33:37;14.80;87.20
13198;DHT22;6664;52.514;13.440;2022-10-16T04:36:08;14.80;87.20
13198;DHT22;6664;52.514;13.440;2022-10-16T04:38:37;14.70;87.10
13198;DHT22;6664;52.514;13.440;2022-10-16T04:41:06;14.70;87.10
13198;DHT22;6664;52.514;13.440;2022-10-16T04:43:33;14.60;87.00
13198;DHT22;6664;52.514;13.440;2022-10-16T04:46:03;14.60;87.40
13198;DHT22;6664;52.514;13.440;2022-10-16T04:48:33;14.50;87.70
13198;DHT22;6664;52.514;13.440;2022-10-16T04:51:00;14.50;88.00
13198;DHT22;6664;52.514;13.440;2022-10-16T04:53:28;14.40;88.00
13198;DHT22;6664;52.514;13.440;2022-10-16T04:55:55;14.30;88.30
13198;DHT22;6664;52.514;13.440;2022-10-16T04:58:25;14.30;88.80
13198;DHT22;6664;52.514;13.440;2022-10-16T05:00:52;14.20;89.20
13198;DHT22;6664;52.514;13.440;2022-10-16T05:03:19;14.20;89.70
13198;DHT22;6664;52.514;13.440;2022-10-16T05:05:46;14.10;90.00
13198;DHT22;6664;52.514;13.440;2022-10-16T05:08:15;14.00;90.10
13198;DHT22;6664;52.514;13.440;2022-10-16T05:10:43;14.00;90.30
13198;DHT22;6664;52.514;13.440;2022-10-16T05:13:15;14.00;90.60
13198;DHT22;6664;52.514;13.440;2022-10-16T05:15:49;14.00;90.70
13198;DHT22;6664;52.514;13.440;2022-10-16T05:18:18;14.00;90.80
13198;DHT22;6664;52.514;13.440;2022-10-16T05:20:45;14.00;90.80
13198;DHT22;6664;52.514;13.440;2022-10-16T05:23:12;13.90;90.90
13198;DHT22;6664;52.514;13.440;2022-10-16T05:25:52;14.00;91.10
13198;DHT22;6664;52.514;13.440;2022-10-16T05:28:20;14.00;91.30
13198;DHT22;6664;52.514;13.440;2022-10-16T05:30:49;14.00;91.30
13198;DHT22;6664;52.514;13.440;2022-10-16T05:33:16;14.10;91.40
13198;DHT22;6664;52.514;13.440;2022-10-16T05:35:43;14.10;91.40
13198;DHT22;6664;52.514;13.440;2022-10-16T05:38:10;14.10;91.30
13198;DHT22;6664;52.514;13.440;2022-10-16T05:40:37;14.10;91.30
13198;DHT22;6664;52.514;13.440;2022-10-16T05:43:04;14.10;91.30
13198;DHT22;6664;52.514;13.440;2022-10-16T05:45:31;14.10;91.30
13198;DHT22;6664;52.514;13.440;2022-10-16T05:47:58;14.10;91.30
13198;DHT22;6664;52.514;13.440;2022-10-16T05:50:27;14.20;91.30
13198;DHT22;6664;52.514;13.440;2022-10-16T05:52:54;14.20;91.20
13198;DHT22;6664;52.514;13.440;2022-10-16T05:55:23;14.20;91.10
13198;DHT22;6664;52.514;13.440;2022-10-16T05:57:50;14.20;90.90
13198;DHT22;6664;52.514;13.440;2022-10-16T06:00:20;14.20;90.90
13198;DHT22;6664;52.514;13.440;2022-10-16T06:02:47;14.20;90.90
13198;DHT22;6664;52.514;13.440;2022-10-16T06:05:14;14.20;91.00
13198;DHT22;6664;52.514;13.440;2022-10-16T06:07:41;14.30;90.90
13198;DHT22;6664;52.514;13.440;2022-10-16T06:10:08;14.30;90.80
13198;DHT22;6664;52.514;13.440;2022-10-16T06:12:37;14.40;90.80
13198;DHT22;6664;52.514;13.440;2022-10-16T06:15:04;14.50;90.80
13198;DHT22;6664;52.514;13.440;2022-10-16T06:17:31;14.60;90.70
13198;DHT22;6664;52.514;13.440;2022-10-16T06:20:01;14.70;90.40
13198;DHT22;6664;52.514;13.440;2022-10-16T06:22:28;14.80;90.10
13198;DHT22;6664;52.514;13.440;2022-10-16T06:24:57;14.90;89.60
13198;DHT22;6664;52.514;13.440;2022-10-16T06:27:24;15.00;88.80
13198;DHT22;6664;52.514;13.440;2022-10-16T06:29:51;15.10;88.10
13198;DHT22;6664;52.514;13.440;2022-10-16T06:32:18;15.10;87.50
13198;DHT22;6664;52.514;13.440;2022-10-16T06:34:45;15.10;87.20
13198;DHT22;6664;52.514;13.440;2022-10-16T06:37:14;15.30;86.60
13198;DHT22;6664;52.514;13.440;2022-10-16T06:39:41;15.40;85.80
13198;DHT22;6664;52.514;13.440;2022-10-16T06:42:10;15.40;85.00
13198;DHT22;6664;52.514;13.440;2022-10-16T06:44:37;15.60;84.60
13198;DHT22;6664;52.514;13.440;2022-10-16T06:47:03;15.60;84.00
13198;DHT22;6664;52.514;13.440;2022-10-16T06:49:30;15.70;83.50
13198;DHT22;6664;52.514;13.440;2022-10-16T06:51:59;15.70;83.10
13198;DHT22;6664;52.514;13.440;2022-10-16T06:54:28;15.70;82.80
13198;DHT22;6664;52.514;13.440;2022-10-16T06:56:55;15.80;82.50
13198;DHT22;6664;52.514;13.440;2022-10-16T06:59:22;15.80;82.30
13198;DHT22;6664;52.514;13.440;2022-10-16T07:01:49;15.90;82.10
13198;DHT22;6664;52.514;13.440;2022-10-16T07:04:15;16.00;81.60
13198;DHT22;6664;52.514;13.440;2022-10-16T07:06:42;16.20;81.30
13198;DHT22;6664;52.514;13.440;2022-10-16T07:09:10;16.40;80.50
13198;DHT22;6664;52.514;13.440;2022-10-16T07:11:38;16.60;79.40
13198;DHT22;6664;52.514;13.440;2022-10-16T07:14:21;17.00;78.60
13198;DHT22;6664;52.514;13.440;2022-10-16T07:16:48;17.30;76.90
13198;DHT22;6664;52.514;13.440;2022-10-16T07:19:15;17.60;75.40
13198;DHT22;6664;52.514;13.440;2022-10-16T07:21:44;17.70;74.30
13198;DHT22;6664;52.514;13.440;2022-10-16T07:24:13;17.80;72.80
13198;DHT22;6664;52.514;13.440;2022-10-16T07:26:41;17.90;72.30
13198;DHT22;6664;52.514;13.440;2022-10-16T07:29:19;17.90;71.70
13198;DHT22;6664;52.514;13.440;2022-10-16T07:31:47;18.00;71.10
13198;DHT22;6664;52.514;13.440;2022-10-16T07:34:18;18.00;70.50
13198;DHT22;6664;52.514;13.440;2022-10-16T07:36:50;18.00;70.20
13198;DHT22;6664;52.514;13.440;2022-10-16T07:39:17;18.00;69.90
13198;DHT22;6664;52.514;13.440;2022-10-16T07:41:46;18.00;69.60
13198;DHT22;6664;52.514;13.440;2022-10-16T07:44:15;17.90;69.70
13198;DHT22;6664;52.514;13.440;2022-10-16T07:46:42;18.00;69.80
13198;DHT22;6664;52.514;13.440;2022-10-16T07:49:09;18.00;69.80
13198;DHT22;6664;52.514;13.440;2022-10-16T07:51:38;18.00;69.70
13198;DHT22;6664;52.514;13.440;2022-10-16T07:54:08;17.90;69.70
13198;DHT22;6664;52.514;13.440;2022-10-16T07:56:35;18.00;69.80
13198;DHT22;6664;52.514;13.440;2022-10-16T07:59:08;17.90;69.70
13198;DHT22;6664;52.514;13.440;2022-10-16T08:01:35;17.80;70.00
13198;DHT22;6664;52.514;13.440;2022-10-16T08:04:02;17.80;70.30
13198;DHT22;6664;52.514;13.440;2022-10-16T08:06:38;17.90;70.20
13198;DHT22;6664;52.514;13.440;2022-10-16T08:09:06;18.00;70.20
13198;DHT22;6664;52.514;13.440;2022-10-16T08:11:33;18.10;69.60
13198;DHT22;6664;52.514;13.440;2022-10-16T08:14:00;18.30;69.30
13198;DHT22;6664;52.514;13.440;2022-10-16T08:16:27;18.30;68.90
13198;DHT22;6664;52.514;13.440;2022-10-16T08:18:54;18.40;68.40
13198;DHT22;6664;52.514;13.440;2022-10-16T08:21:22;18.50;67.90
13198;DHT22;6664;52.514;13.440;2022-10-16T08:23:53;18.50;67.60
13198;DHT22;6664;52.514;13.440;2022-10-16T08:26:24;18.60;67.40
13198;DHT22;6664;52.514;13.440;2022-10-16T08:28:52;18.50;67.10
13198;DHT22;6664;52.514;13.440;2022-10-16T08:31:20;18.60;67.40
13198;DHT22;6664;52.514;13.440;2022-10-16T08:33:47;18.60;67.20
13198;DHT22;6664;52.514;13.440;2022-10-16T08:36:15;18.40;67.00
13198;DHT22;6664;52.514;13.440;2022-10-16T08:38:42;18.40;67.40
13198;DHT22;6664;52.514;13.440;2022-10-16T08:44:24;18.20;68.00
13198;DHT22;6664;52.514;13.440;2022-10-16T08:49:48;18.00;69.10
13198;DHT22;6664;52.514;13.440;2022-10-16T08:52:24;18.00;69.20
13198;DHT22;6664;52.514;13.440;2022-10-16T08:54:55;18.00;68.60
13198;DHT22;6664;52.514;13.440;2022-10-16T08:57:25;18.10;69.00
13198;DHT22;6664;52.514;13.440;2022-10-16T08:59:54;18.00;69.10
13198;DHT22;6664;52.514;13.440;2022-10-16T09:13:29;17.90;69.30
13198;DHT22;6664;52.514;13.440;2022-10-16T09:21:45;18.00;68.10
13198;DHT22;6664;52.514;13.440;2022-10-16T09:24:16;18.10;67.50
13198;DHT22;6664;52.514;13.440;2022-10-16T09:26:44;18.30;67.40
13198;DHT22;6664;52.514;13.440;2022-10-16T09:29:17;18.30;66.70
13198;DHT22;6664;52.514;13.440;2022-10-16T09:31:46;18.10;67.10
13198;DHT22;6664;52.514;13.440;2022-10-16T09:34:34;18.00;67.40
13198;DHT22;6664;52.514;13.440;2022-10-16T09:37:11;17.90;67.80
13198;DHT22;6664;52.514;13.440;2022-10-16T09:39:51;17.90;68.20
13198;DHT22;6664;52.514;13.440;2022-10-16T09:42:24;17.80;68.00
13198;DHT22;6664;52.514;13.440;2022-10-16T09:44:53;17.80;68.10
13198;DHT22;6664;52.514;13.440;2022-10-16T09:47:23;17.80;68.10
13198;DHT22;6664;52.514;13.440;2022-10-16T09:49:59;17.80;68.10
13198;DHT22;6664;52.514;13.440;2022-10-16T09:52:34;17.80;68.00
13198;DHT22;6664;52.514;13.440;2022-10-16T09:55:16;17.80;68.30
13198;DHT22;6664;52.514;13.440;2022-10-16T09:57:53;17.80;68.20
13198;DHT22;6664;52.514;13.440;2022-10-16T10:00:21;17.70;68.30
13198;DHT22;6664;52.514;13.440;2022-10-16T10:02:49;17.70;68.50
13198;DHT22;6664;52.514;13.440;2022-10-16T10:05:25;17.80;68.30
13198;DHT22;6664;52.514;13.440;2022-10-16T10:07:58;17.90;68.00
13198;DHT22;6664;52.514;13.440;2022-10-16T10:10:30;18.40;66.80
13198;DHT22;6664;52.514;13.440;2022-10-16T10:13:01;18.70;65.60
13198;DHT22;6664;52.514;13.440;2022-10-16T10:15:33;18.80;63.50
13198;DHT22;6664;52.514;13.440;2022-10-16T10:18:02;19.10;63.00
13198;DHT22;6664;52.514;13.440;2022-10-16T10:20:38;19.20;62.40
13198;DHT22;6664;52.514;13.440;2022-10-16T10:23:23;19.20;61.30
13198;DHT22;6664;52.514;13.440;2022-10-16T10:26:16;19.10;61.10
13198;DHT22;6664;52.514;13.440;2022-10-16T10:31:41;19.10;61.30
13198;DHT22;6664;52.514;13.440;2022-10-16T10:37:37;19.40;60.70
13198;DHT22;6664;52.514;13.440;2022-10-16T10:45:58;19.50;58.20
13198;DHT22;6664;52.514;13.440;2022-10-16T10:51:05;20.00;57.50
13198;DHT22;6664;52.514;13.440;2022-10-16T10:53:44;20.20;56.30
13198;DHT22;6664;52.514;13.440;2022-10-16T10:56:41;20.10;55.80
13198;DHT22;6664;52.514;13.440;2022-10-16T11:07:27;20.80;52.40
13198;DHT22;6664;52.514;13.440;2022-10-16T11:10:03;21.10;50.30
13198;DHT22;6664;52.514;13.440;2022-10-16T11:12:41;20.90;49.90
13198;DHT22;6664;52.514;13.440;2022-10-16T11:15:29;21.00;49.70
13198;DHT22;6664;52.514;13.440;2022-10-16T11:20:50;21.20;49.20
13198;DHT22;6664;52.514;13.440;2022-10-16T11:23:26;21.10;49.10
13198;DHT22;6664;52.514;13.440;2022-10-16T11:25:59;21.20;48.60
13198;DHT22;6664;52.514;13.440;2022-10-16T11:28:40;21.10;48.80
13198;DHT22;6664;52.514;13.440;2022-10-16T11:31:21;21.00;49.00
13198;DHT22;6664;52.514;13.440;2022-10-16T11:36:42;20.70;48.70
13198;DHT22;6664;52.514;13.440;2022-10-16T11:41:49;20.00;50.20
13198;DHT22;6664;52.514;13.440;2022-10-16T11:50:31;19.70;49.90
13198;DHT22;6664;52.514;13.440;2022-10-16T11:55:42;19.50;48.80
13198;DHT22;6664;52.514;13.440;2022-10-16T12:01:33;19.30;48.10
13198;DHT22;6664;52.514;13.440;2022-10-16T12:04:45;19.30;49.20
13198;DHT22;6664;52.514;13.440;2022-10-16T12:09:30;19.50;48.50
13198;DHT22;6664;52.514;13.440;2022-10-16T12:11:58;19.40;48.20
13198;DHT22;6664;52.514;13.440;2022-10-16T12:14:38;19.30;48.60
13198;DHT22;6664;52.514;13.440;2022-10-16T12:17:34;19.20;49.30
13198;DHT22;6664;52.514;13.440;2022-10-16T12:22:49;18.90;48.70
13198;DHT22;6664;52.514;13.440;2022-10-16T12:30:31;19.00;48.00
13198;DHT22;6664;52.514;13.440;2022-10-16T12:33:15;19.20;47.90
13198;DHT22;6664;52.514;13.440;2022-10-16T12:35:46;19.50;46.40
13198;DHT22;6664;52.514;13.440;2022-10-16T12:38:29;20.00;44.90
13198;DHT22;6664;52.514;13.440;2022-10-16T12:41:04;20.80;42.20
13198;DHT22;6664;52.514;13.440;2022-10-16T12:43:44;26.40;33.70
13198;DHT22;6664;52.514;13.440;2022-10-16T12:48:43;33.20;18.70
13198;DHT22;6664;52.514;13.440;2022-10-16T12:51:37;33.10;13.50
13198;DHT22;6664;52.514;13.440;2022-10-16T12:54:27;34.80;11.50
13198;DHT22;6664;52.514;13.440;2022-10-16T12:57:08;36.40;8.00
13198;DHT22;6664;52.514;13.440;2022-10-16T13:00:13;37.10;7.80
13198;DHT22;6664;52.514;13.440;2022-10-16T13:20:10;32.50;6.80
13198;DHT22;6664;52.514;13.440;2022-10-16T13:22:56;31.00;11.00
13198;DHT22;6664;52.514;13.440;2022-10-16T13:28:33;29.60;13.10
13198;DHT22;6664;52.514;13.440;2022-10-16T13:31:04;29.50;14.90
13198;DHT22;6664;52.514;13.440;2022-10-16T13:33:41;26.00;19.40
13198;DHT22;6664;52.514;13.440;2022-10-16T13:36:24;24.70;22.80
13198;DHT22;6664;52.514;13.440;2022-10-16T13:39:20;23.80;25.10
13198;DHT22;6664;52.514;13.440;2022-10-16T13:42:07;23.60;25.90
13198;DHT22;6664;52.514;13.440;2022-10-16T13:44:49;23.70;25.60
13198;DHT22;6664;52.514;13.440;2022-10-16T13:47:22;23.60;25.60
13198;DHT22;6664;52.514;13.440;2022-10-16T13:50:10;22.50;27.80
13198;DHT22;6664;52.514;13.440;2022-10-16T13:52:38;21.90;30.00
13198;DHT22;6664;52.514;13.440;2022-10-16T13:55:14;21.40;31.50
13198;DHT22;6664;52.514;13.440;2022-10-16T13:57:42;21.10;32.60
13198;DHT22;6664;52.514;13.440;2022-10-16T14:00:21;20.80;34.50
13198;DHT22;6664;52.514;13.440;2022-10-16T14:03:03;20.60;34.80
13198;DHT22;6664;52.514;13.440;2022-10-16T14:05:31;20.40;35.90
13198;DHT22;6664;52.514;13.440;2022-10-16T14:07:59;20.30;36.00
13198;DHT22;6664;52.514;13.440;2022-10-16T14:10:31;20.20;36.60
13198;DHT22;6664;52.514;13.440;2022-10-16T14:13:01;20.10;37.20
13198;DHT22;6664;52.514;13.440;2022-10-16T14:15:31;20.00;37.30
13198;DHT22;6664;52.514;13.440;2022-10-16T14:18:01;20.00;37.90
13198;DHT22;6664;52.514;13.440;2022-10-16T14:20:31;19.80;38.30
13198;DHT22;6664;52.514;13.440;2022-10-16T14:23:04;19.80;38.90
13198;DHT22;6664;52.514;13.440;2022-10-16T14:25:33;19.80;39.20
13198;DHT22;6664;52.514;13.440;2022-10-16T14:30:36;19.70;39.80
13198;DHT22;6664;52.514;13.440;2022-10-16T14:33:05;19.60;39.30
13198;DHT22;6664;52.514;13.440;2022-10-16T14:35:39;19.60;39.70
13198;DHT22;6664;52.514;13.440;2022-10-16T14:38:18;19.50;39.80
13198;DHT22;6664;52.514;13.440;2022-10-16T14:40:48;19.50;40.30
13198;DHT22;6664;52.514;13.440;2022-10-16T14:43:34;19.50;40.40
13198;DHT22;6664;52.514;13.440;2022-10-16T14:46:04;19.40;40.80
13198;DHT22;6664;52.514;13.440;2022-10-16T14:48:33;19.40;41.00
13198;DHT22;6664;52.514;13.440;2022-10-16T14:51:04;19.30;41.30
13198;DHT22;6664;52.514;13.440;2022-10-16T14:53:35;19.20;41.00
13198;DHT22;6664;52.514;13.440;2022-10-16T14:56:14;19.20;41.30
13198;DHT22;6664;52.514;13.440;2022-10-16T14:58:42;19.20;41.50
13198;DHT22;6664;52.514;13.440;2022-10-16T15:01:10;19.20;41.10
13198;DHT22;6664;52.514;13.440;2022-10-16T15:03:38;19.20;40.90
13198;DHT22;6664;52.514;13.440;2022-10-16T15:06:10;19.20;41.30
13198;DHT22;6664;52.514;13.440;2022-10-16T15:08:41;19.10;41.50
13198;DHT22;6664;52.514;13.440;2022-10-16T15:11:18;19.10;41.30
13198;DHT22;6664;52.514;13.440;2022-10-16T15:13:46;19.10;41.60
13198;DHT22;6664;52.514;13.440;2022-10-16T15:16:18;19.00;41.60
13198;DHT22;6664;52.514;13.440;2022-10-16T15:18:45;18.90;41.80
13198;DHT22;6664;52.514;13.440;2022-10-16T15:21:29;18.90;42.30
13198;DHT22;6664;52.514;13.440;2022-10-16T15:23:58;18.80;42.30
13198;DHT22;6664;52.514;13.440;2022-10-16T15:26:29;18.70;42.60
13198;DHT22;6664;52.514;13.440;2022-10-16T15:28:57;18.70;42.80
13198;DHT22;6664;52.514;13.440;2022-10-16T15:31:24;18.50;43.00
13198;DHT22;6664;52.514;13.440;2022-10-16T15:33:54;18.40;43.40
13198;DHT22;6664;52.514;13.440;2022-10-16T15:36:28;18.30;43.30
13198;DHT22;6664;52.514;13.440;2022-10-16T15:38:56;18.30;43.30
13198;DHT22;6664;52.514;13.440;2022-10-16T15:41:23;18.30;43.20
13198;DHT22;6664;52.514;13.440;2022-10-16T15:43:55;18.10;43.30
13198;DHT22;6664;52.514;13.440;2022-10-16T15:46:23;18.20;43.30
13198;DHT22;6664;52.514;13.440;2022-10-16T15:48:51;18.20;43.30
13198;DHT22;6664;52.514;13.440;2022-10-16T15:51:22;18.10;43.10
13198;DHT22;6664;52.514;13.440;2022-10-16T15:53:49;17.90;43.00
13198;DHT22;6664;52.514;13.440;2022-10-16T15:56:17;17.80;42.90
13198;DHT22;6664;52.514;13.440;2022-10-16T15:58:44;17.70;43.70
13198;DHT22;6664;52.514;13.440;2022-10-16T16:01:11;17.60;43.60
13198;DHT22;6664;52.514;13.440;2022-10-16T16:03:39;17.60;43.90
13198;DHT22;6664;52.514;13.440;2022-10-16T16:06:11;17.60;43.70
13198;DHT22;6664;52.514;13.440;2022-10-16T16:08:39;17.50;43.70
13198;DHT22;6664;52.514;13.440;2022-10-16T16:11:08;17.50;44.10
13198;DHT22;6664;52.514;13.440;2022-10-16T16:13:35;17.30;44.20
13198;DHT22;6664;52.514;13.440;2022-10-16T16:16:13;17.30;44.60
13198;DHT22;6664;52.514;13.440;2022-10-16T16:18:40;17.20;45.00
13198;DHT22;6664;52.514;13.440;2022-10-16T16:21:13;17.10;45.90
13198;DHT22;6664;52.514;13.440;2022-10-16T16:23:42;17.00;45.30
13198;DHT22;6664;52.514;13.440;2022-10-16T16:26:30;17.10;45.50
13198;DHT22;6664;52.514;13.440;2022-10-16T16:29:06;16.90;45.80
13198;DHT22;6664;52.514;13.440;2022-10-16T16:31:36;16.80;45.80
13198;DHT22;6664;52.514;13.440;2022-10-16T16:34:07;16.70;46.20
13198;DHT22;6664;52.514;13.440;2022-10-16T16:36:37;16.60;46.70
13198;DHT22;6664;52.514;13.440;2022-10-16T16:39:10;16.50;47.00
13198;DHT22;6664;52.514;13.440;2022-10-16T16:41:37;16.50;47.00
13198;DHT22;6664;52.514;13.440;2022-10-16T16:44:33;16.60;47.10
13198;DHT22;6664;52.514;13.440;2022-10-16T16:47:03;16.50;47.10
13198;DHT22;6664;52.514;13.440;2022-10-16T16:49:30;16.40;47.50
13198;DHT22;6664;52.514;13.440;2022-10-16T16:51:58;16.40;47.00
13198;DHT22;6664;52.514;13.440;2022-10-16T16:54:27;16.60;47.10
13198;DHT22;6664;52.514;13.440;2022-10-16T16:56:54;16.40;46.90
13198;DHT22;6664;52.514;13.440;2022-10-16T16:59:21;16.30;47.40
13198;DHT22;6664;52.514;13.440;2022-10-16T17:01:51;16.20;47.70
13198;DHT22;6664;52.514;13.440;2022-10-16T17:04:22;16.10;48.20
13198;DHT22;6664;52.514;13.440;2022-10-16T17:06:49;16.00;47.80
13198;DHT22;6664;52.514;13.440;2022-10-16T17:09:16;15.90;49.80
13198;DHT22;6664;52.514;13.440;2022-10-16T17:11:46;15.80;50.20
13198;DHT22;6664;52.514;13.440;2022-10-16T17:14:17;15.70;49.80
13198;DHT22;6664;52.514;13.440;2022-10-16T17:16:47;15.60;51.40
13198;DHT22;6664;52.514;13.440;2022-10-16T17:19:51;15.70;49.60
13198;DHT22;6664;52.514;13.440;2022-10-16T17:22:21;15.50;51.10
13198;DHT22;6664;52.514;13.440;2022-10-16T17:24:57;15.30;52.00
13198;DHT22;6664;52.514;13.440;2022-10-16T17:27:26;15.20;51.70
13198;DHT22;6664;52.514;13.440;2022-10-16T17:29:55;15.30;51.20
13198;DHT22;6664;52.514;13.440;2022-10-16T17:32:23;15.10;52.40
13198;DHT22;6664;52.514;13.440;2022-10-16T17:34:51;15.00;51.80
13198;DHT22;6664;52.514;13.440;2022-10-16T17:37:20;15.20;51.10
13198;DHT22;6664;52.514;13.440;2022-10-16T17:39:52;15.10;51.60
13198;DHT22;6664;52.514;13.440;2022-10-16T17:42:21;15.00;52.10
13198;DHT22;6664;52.514;13.440;2022-10-16T17:44:48;14.90;51.80
13198;DHT22;6664;52.514;13.440;2022-10-16T17:47:15;14.60;55.00
13198;DHT22;6664;52.514;13.440;2022-10-16T17:49:42;14.40;55.50
13198;DHT22;6664;52.514;13.440;2022-10-16T17:52:09;14.30;56.20